Baltimore, MD (21239)

6:49 AM EDT on September 26, 2016 (GMT -0400)
Stoneleigh Regester | | Change Station

Elev 463 ft 39.38 °N, 76.61 °W | Updated 7 seconds ago

Mostly Cloudy
Mostly Cloudy
58.1 °F
Feels Like 58.1 °F
N
0.4
Wind Variable Wind from ESE
Gusts 1.6 mph

Today
High -- | Low -- °F
--% Chance of Precip.
Yesterday
High -- | Low -- °F
Precip. -- in
Pressure 30.14 in
Visibility 10.0 miles
Clouds Scattered Clouds 3800 ft
Mostly Cloudy 5000 ft
Dew Point 52 °F
Humidity 80%
Rainfall 0.00 in
Snow Depth Not available.
6:58 AM 6:56 PM
Waning Crescent, 20% visible
METAR KBWI 260954Z 00000KT 10SM SCT038 BKN050 13/11 A3013 RMK AO2 SLP204 T01330106 $
Pressure 30.14 in
Visibility 10.0 miles
Clouds Scattered Clouds 3800 ft
Mostly Cloudy 5000 ft
Dew Point 52 °F
Humidity 80%
Rainfall 0.00 in
Snow Depth Not available.
6:58 AM 6:56 PM
Waning Crescent, 20% visible
METAR KBWI 260954Z 00000KT 10SM SCT038 BKN050 13/11 A3013 RMK AO2 SLP204 T01330106 $

10-Day Weather Forecast

Almanac

Astronomy

Sep. 26, 2016 Rise Set
Actual Time
Civil Twilight
Nautical Twilight
Astronomical Twilight
Moon
Length of Visible Light
Length of Day
Tomorrow will be .
, % of the Moon is Illuminated

Today's Extremes

State Highs State Lows

Community

WunderPhotos

Upload Photos

1,941,856 photos uploaded!

WunderBlog® & News

Nearby

Air Quality

  Air Quality AQ Index Pollutant
Not available.

Snow Depth

Station Depth Elevation

Earthquake Activity

City Distance Mag. Time & Date
Minimum magnitude displayed is 2.5.

Coastal Water Temperatures

Place Temperature

Stations

Nearby Weather Stations

Station Location Temp. Windchill Dew Point Humidity Wind Precip. Elev Updated Type
                   

Watches & Warnings

There are currently no watches in effect.